sensor_id;sensor_type;location;lat;lon;timestamp;P1;durP1;ratioP1;P2;durP2;ratioP2
8159;SDS011;27404;52.398;9.646;2022-11-20T00:00:06;17.63;;;8.77;;
8159;SDS011;27404;52.398;9.646;2022-11-20T00:02:32;19.93;;;10.50;;
8159;SDS011;27404;52.398;9.646;2022-11-20T00:04:58;16.53;;;9.43;;
8159;SDS011;27404;52.398;9.646;2022-11-20T00:07:23;19.60;;;10.67;;
8159;SDS011;27404;52.398;9.646;2022-11-20T00:09:49;16.43;;;9.70;;
8159;SDS011;27404;52.398;9.646;2022-11-20T00:12:14;19.83;;;10.90;;
8159;SDS011;27404;52.398;9.646;2022-11-20T00:14:39;18.17;;;10.37;;
8159;SDS011;27404;52.398;9.646;2022-11-20T00:17:06;19.70;;;10.93;;
8159;SDS011;27404;52.398;9.646;2022-11-20T00:19:32;16.40;;;10.07;;
8159;SDS011;27404;52.398;9.646;2022-11-20T00:21:57;17.47;;;9.27;;
8159;SDS011;27404;52.398;9.646;2022-11-20T00:24:23;18.03;;;9.73;;
8159;SDS011;27404;52.398;9.646;2022-11-20T00:26:48;19.33;;;9.90;;
8159;SDS011;27404;52.398;9.646;2022-11-20T00:29:14;20.30;;;9.90;;
8159;SDS011;27404;52.398;9.646;2022-11-20T00:31:39;16.90;;;9.53;;
8159;SDS011;27404;52.398;9.646;2022-11-20T00:34:04;18.40;;;10.47;;
8159;SDS011;27404;52.398;9.646;2022-11-20T00:36:31;16.07;;;9.67;;
8159;SDS011;27404;52.398;9.646;2022-11-20T00:38:58;17.47;;;9.37;;
8159;SDS011;27404;52.398;9.646;2022-11-20T00:41:24;18.17;;;10.50;;
8159;SDS011;27404;52.398;9.646;2022-11-20T00:43:51;19.03;;;10.77;;
8159;SDS011;27404;52.398;9.646;2022-11-20T00:46:18;20.23;;;10.43;;
8159;SDS011;27404;52.398;9.646;2022-11-20T00:48:45;18.90;;;9.73;;
8159;SDS011;27404;52.398;9.646;2022-11-20T00:51:11;18.00;;;10.40;;
8159;SDS011;27404;52.398;9.646;2022-11-20T00:53:38;18.80;;;9.73;;
8159;SDS011;27404;52.398;9.646;2022-11-20T00:56:05;20.33;;;11.20;;
8159;SDS011;27404;52.398;9.646;2022-11-20T00:58:36;18.17;;;10.87;;
8159;SDS011;27404;52.398;9.646;2022-11-20T01:01:06;18.87;;;9.13;;
8159;SDS011;27404;52.398;9.646;2022-11-20T01:03:40;19.10;;;10.30;;
8159;SDS011;27404;52.398;9.646;2022-11-20T01:06:14;19.27;;;9.83;;
8159;SDS011;27404;52.398;9.646;2022-11-20T01:08:42;14.53;;;8.50;;
8159;SDS011;27404;52.398;9.646;2022-11-20T01:11:09;17.47;;;9.93;;
8159;SDS011;27404;52.398;9.646;2022-11-20T01:13:38;15.50;;;9.30;;
8159;SDS011;27404;52.398;9.646;2022-11-20T01:16:14;17.73;;;9.17;;
8159;SDS011;27404;52.398;9.646;2022-11-20T01:18:45;15.37;;;9.33;;
8159;SDS011;27404;52.398;9.646;2022-11-20T01:21:19;18.13;;;9.30;;
8159;SDS011;27404;52.398;9.646;2022-11-20T01:23:56;18.23;;;9.60;;
8159;SDS011;27404;52.398;9.646;2022-11-20T01:26:26;16.63;;;9.53;;
8159;SDS011;27404;52.398;9.646;2022-11-20T01:28:54;17.30;;;9.50;;
8159;SDS011;27404;52.398;9.646;2022-11-20T01:31:25;18.73;;;9.33;;
8159;SDS011;27404;52.398;9.646;2022-11-20T01:33:53;21.27;;;9.70;;
8159;SDS011;27404;52.398;9.646;2022-11-20T01:36:21;16.07;;;8.93;;
8159;SDS011;27404;52.398;9.646;2022-11-20T01:38:51;20.30;;;10.23;;
8159;SDS011;27404;52.398;9.646;2022-11-20T01:41:18;15.47;;;8.90;;
8159;SDS011;27404;52.398;9.646;2022-11-20T01:44:03;17.87;;;9.53;;
8159;SDS011;27404;52.398;9.646;2022-11-20T01:46:29;14.67;;;9.23;;
8159;SDS011;27404;52.398;9.646;2022-11-20T01:54:00;18.47;;;9.93;;
8159;SDS011;27404;52.398;9.646;2022-11-20T01:56:28;17.57;;;10.33;;
8159;SDS011;27404;52.398;9.646;2022-11-20T01:58:59;18.17;;;9.27;;
8159;SDS011;27404;52.398;9.646;2022-11-20T02:01:29;16.87;;;9.43;;
8159;SDS011;27404;52.398;9.646;2022-11-20T02:03:54;18.73;;;9.20;;
8159;SDS011;27404;52.398;9.646;2022-11-20T02:06:25;16.63;;;9.30;;
8159;SDS011;27404;52.398;9.646;2022-11-20T02:08:54;15.87;;;8.77;;
8159;SDS011;27404;52.398;9.646;2022-11-20T02:11:20;19.83;;;9.47;;
8159;SDS011;27404;52.398;9.646;2022-11-20T02:13:46;17.10;;;9.63;;
8159;SDS011;27404;52.398;9.646;2022-11-20T02:18:42;14.97;;;8.53;;
8159;SDS011;27404;52.398;9.646;2022-11-20T02:21:32;17.20;;;8.67;;
8159;SDS011;27404;52.398;9.646;2022-11-20T02:24:01;22.37;;;10.50;;
8159;SDS011;27404;52.398;9.646;2022-11-20T02:26:37;17.37;;;9.17;;
8159;SDS011;27404;52.398;9.646;2022-11-20T02:29:11;16.80;;;9.00;;
8159;SDS011;27404;52.398;9.646;2022-11-20T02:31:38;18.50;;;9.40;;
8159;SDS011;27404;52.398;9.646;2022-11-20T02:34:06;16.83;;;9.37;;
8159;SDS011;27404;52.398;9.646;2022-11-20T02:36:32;16.40;;;9.23;;
8159;SDS011;27404;52.398;9.646;2022-11-20T02:39:00;16.20;;;8.97;;
8159;SDS011;27404;52.398;9.646;2022-11-20T02:41:33;16.67;;;9.10;;
8159;SDS011;27404;52.398;9.646;2022-11-20T02:44:00;17.70;;;9.03;;
8159;SDS011;27404;52.398;9.646;2022-11-20T02:46:25;16.50;;;9.20;;
8159;SDS011;27404;52.398;9.646;2022-11-20T02:48:51;16.10;;;9.33;;
8159;SDS011;27404;52.398;9.646;2022-11-20T02:51:16;15.83;;;9.53;;
8159;SDS011;27404;52.398;9.646;2022-11-20T02:53:42;17.23;;;9.37;;
8159;SDS011;27404;52.398;9.646;2022-11-20T02:56:07;16.43;;;9.73;;
8159;SDS011;27404;52.398;9.646;2022-11-20T02:58:33;18.17;;;9.33;;
8159;SDS011;27404;52.398;9.646;2022-11-20T03:00:58;16.60;;;9.10;;
8159;SDS011;27404;52.398;9.646;2022-11-20T03:03:23;16.57;;;9.50;;
8159;SDS011;27404;52.398;9.646;2022-11-20T03:05:49;16.57;;;9.17;;
8159;SDS011;27404;52.398;9.646;2022-11-20T03:08:14;18.10;;;9.57;;
8159;SDS011;27404;52.398;9.646;2022-11-20T03:10:40;18.60;;;9.70;;
8159;SDS011;27404;52.398;9.646;2022-11-20T03:13:05;18.13;;;9.57;;
8159;SDS011;27404;52.398;9.646;2022-11-20T03:15:31;19.40;;;9.13;;
8159;SDS011;27404;52.398;9.646;2022-11-20T03:17:56;18.40;;;10.43;;
8159;SDS011;27404;52.398;9.646;2022-11-20T03:20:22;15.93;;;9.27;;
8159;SDS011;27404;52.398;9.646;2022-11-20T03:22:48;17.37;;;9.30;;
8159;SDS011;27404;52.398;9.646;2022-11-20T03:25:13;16.90;;;9.23;;
8159;SDS011;27404;52.398;9.646;2022-11-20T03:27:38;16.33;;;9.50;;
8159;SDS011;27404;52.398;9.646;2022-11-20T03:30:04;17.43;;;9.27;;
8159;SDS011;27404;52.398;9.646;2022-11-20T03:32:30;14.67;;;9.13;;
8159;SDS011;27404;52.398;9.646;2022-11-20T03:34:56;17.00;;;9.13;;
8159;SDS011;27404;52.398;9.646;2022-11-20T03:37:21;16.67;;;9.43;;
8159;SDS011;27404;52.398;9.646;2022-11-20T03:39:47;16.17;;;8.87;;
8159;SDS011;27404;52.398;9.646;2022-11-20T03:42:13;16.47;;;8.83;;
8159;SDS011;27404;52.398;9.646;2022-11-20T03:44:57;15.07;;;9.07;;
8159;SDS011;27404;52.398;9.646;2022-11-20T03:47:22;18.43;;;9.83;;
8159;SDS011;27404;52.398;9.646;2022-11-20T03:49:48;16.20;;;9.60;;
8159;SDS011;27404;52.398;9.646;2022-11-20T03:52:13;18.33;;;9.87;;
8159;SDS011;27404;52.398;9.646;2022-11-20T03:54:39;15.60;;;9.23;;
8159;SDS011;27404;52.398;9.646;2022-11-20T03:57:04;18.17;;;8.90;;
8159;SDS011;27404;52.398;9.646;2022-11-20T03:59:29;14.97;;;8.77;;
8159;SDS011;27404;52.398;9.646;2022-11-20T04:01:55;14.53;;;9.17;;
8159;SDS011;27404;52.398;9.646;2022-11-20T04:04:20;14.57;;;8.63;;
8159;SDS011;27404;52.398;9.646;2022-11-20T04:06:46;16.90;;;9.17;;
8159;SDS011;27404;52.398;9.646;2022-11-20T04:09:11;16.90;;;8.83;;
8159;SDS011;27404;52.398;9.646;2022-11-20T04:11:39;13.17;;;8.20;;
8159;SDS011;27404;52.398;9.646;2022-11-20T04:14:06;15.30;;;8.87;;
8159;SDS011;27404;52.398;9.646;2022-11-20T04:16:37;16.53;;;8.60;;
8159;SDS011;27404;52.398;9.646;2022-11-20T04:19:04;14.90;;;8.40;;
8159;SDS011;27404;52.398;9.646;2022-11-20T04:21:31;14.93;;;8.37;;
8159;SDS011;27404;52.398;9.646;2022-11-20T04:23:57;15.20;;;8.83;;
8159;SDS011;27404;52.398;9.646;2022-11-20T04:26:25;14.67;;;8.83;;
8159;SDS011;27404;52.398;9.646;2022-11-20T04:28:52;15.57;;;8.40;;
8159;SDS011;27404;52.398;9.646;2022-11-20T04:31:18;16.53;;;9.07;;
8159;SDS011;27404;52.398;9.646;2022-11-20T04:33:45;14.57;;;7.97;;
8159;SDS011;27404;52.398;9.646;2022-11-20T04:36:18;16.30;;;9.77;;
8159;SDS011;27404;52.398;9.646;2022-11-20T04:38:45;14.27;;;8.40;;
8159;SDS011;27404;52.398;9.646;2022-11-20T04:41:15;14.33;;;8.43;;
8159;SDS011;27404;52.398;9.646;2022-11-20T04:43:45;15.27;;;8.60;;
8159;SDS011;27404;52.398;9.646;2022-11-20T04:46:12;15.57;;;8.90;;
8159;SDS011;27404;52.398;9.646;2022-11-20T04:48:38;15.37;;;8.60;;
8159;SDS011;27404;52.398;9.646;2022-11-20T04:51:04;18.20;;;8.90;;
8159;SDS011;27404;52.398;9.646;2022-11-20T04:53:29;17.20;;;8.67;;
8159;SDS011;27404;52.398;9.646;2022-11-20T04:56:05;17.37;;;9.40;;
8159;SDS011;27404;52.398;9.646;2022-11-20T04:58:32;15.23;;;9.63;;
8159;SDS011;27404;52.398;9.646;2022-11-20T05:01:02;17.80;;;8.53;;
8159;SDS011;27404;52.398;9.646;2022-11-20T05:03:29;14.57;;;8.80;;
8159;SDS011;27404;52.398;9.646;2022-11-20T05:05:54;16.17;;;9.73;;
8159;SDS011;27404;52.398;9.646;2022-11-20T05:08:20;18.67;;;9.07;;
8159;SDS011;27404;52.398;9.646;2022-11-20T05:10:45;15.97;;;8.37;;
8159;SDS011;27404;52.398;9.646;2022-11-20T05:13:11;14.40;;;8.57;;
8159;SDS011;27404;52.398;9.646;2022-11-20T05:15:36;17.53;;;8.60;;
8159;SDS011;27404;52.398;9.646;2022-11-20T05:18:02;15.77;;;8.30;;
8159;SDS011;27404;52.398;9.646;2022-11-20T05:20:27;12.27;;;7.87;;
8159;SDS011;27404;52.398;9.646;2022-11-20T05:22:56;14.93;;;8.23;;
8159;SDS011;27404;52.398;9.646;2022-11-20T05:25:21;16.50;;;8.07;;
8159;SDS011;27404;52.398;9.646;2022-11-20T05:27:47;13.27;;;7.87;;
8159;SDS011;27404;52.398;9.646;2022-11-20T05:30:12;13.77;;;8.23;;
8159;SDS011;27404;52.398;9.646;2022-11-20T05:32:38;15.70;;;8.17;;
8159;SDS011;27404;52.398;9.646;2022-11-20T05:35:04;12.57;;;8.53;;
8159;SDS011;27404;52.398;9.646;2022-11-20T05:37:29;14.30;;;7.80;;
8159;SDS011;27404;52.398;9.646;2022-11-20T05:39:55;15.83;;;7.93;;
8159;SDS011;27404;52.398;9.646;2022-11-20T05:42:20;13.87;;;8.13;;
8159;SDS011;27404;52.398;9.646;2022-11-20T05:44:55;15.00;;;7.67;;
8159;SDS011;27404;52.398;9.646;2022-11-20T05:47:21;13.87;;;7.90;;
8159;SDS011;27404;52.398;9.646;2022-11-20T05:49:46;14.10;;;7.43;;
8159;SDS011;27404;52.398;9.646;2022-11-20T05:52:12;14.80;;;7.63;;
8159;SDS011;27404;52.398;9.646;2022-11-20T05:54:37;14.53;;;7.33;;
8159;SDS011;27404;52.398;9.646;2022-11-20T05:57:02;14.97;;;7.67;;
8159;SDS011;27404;52.398;9.646;2022-11-20T05:59:28;12.80;;;7.60;;
8159;SDS011;27404;52.398;9.646;2022-11-20T06:01:53;14.70;;;8.17;;
8159;SDS011;27404;52.398;9.646;2022-11-20T06:04:19;11.93;;;7.43;;
8159;SDS011;27404;52.398;9.646;2022-11-20T06:06:44;13.80;;;7.80;;
8159;SDS011;27404;52.398;9.646;2022-11-20T06:09:10;12.97;;;7.53;;
8159;SDS011;27404;52.398;9.646;2022-11-20T06:11:35;13.23;;;7.30;;
8159;SDS011;27404;52.398;9.646;2022-11-20T06:14:01;11.37;;;6.80;;
8159;SDS011;27404;52.398;9.646;2022-11-20T06:16:26;12.17;;;7.23;;
8159;SDS011;27404;52.398;9.646;2022-11-20T06:18:51;11.93;;;7.33;;
8159;SDS011;27404;52.398;9.646;2022-11-20T06:21:18;14.30;;;7.60;;
8159;SDS011;27404;52.398;9.646;2022-11-20T06:23:44;11.40;;;7.27;;
8159;SDS011;27404;52.398;9.646;2022-11-20T06:26:12;12.97;;;7.57;;
8159;SDS011;27404;52.398;9.646;2022-11-20T06:28:39;11.80;;;7.43;;
8159;SDS011;27404;52.398;9.646;2022-11-20T06:31:05;13.70;;;7.10;;
8159;SDS011;27404;52.398;9.646;2022-11-20T06:33:31;11.80;;;7.17;;
8159;SDS011;27404;52.398;9.646;2022-11-20T06:35:57;14.90;;;7.43;;
8159;SDS011;27404;52.398;9.646;2022-11-20T06:38:24;15.23;;;7.50;;
8159;SDS011;27404;52.398;9.646;2022-11-20T06:40:50;12.77;;;6.93;;
8159;SDS011;27404;52.398;9.646;2022-11-20T06:43:16;12.80;;;7.13;;
8159;SDS011;27404;52.398;9.646;2022-11-20T06:45:41;13.40;;;7.87;;
8159;SDS011;27404;52.398;9.646;2022-11-20T06:48:07;13.83;;;7.70;;
8159;SDS011;27404;52.398;9.646;2022-11-20T06:50:33;11.27;;;6.80;;
8159;SDS011;27404;52.398;9.646;2022-11-20T06:53:02;12.80;;;7.47;;
8159;SDS011;27404;52.398;9.646;2022-11-20T06:55:28;12.47;;;7.43;;
8159;SDS011;27404;52.398;9.646;2022-11-20T06:57:54;12.10;;;7.47;;
8159;SDS011;27404;52.398;9.646;2022-11-20T07:00:19;11.80;;;7.37;;
8159;SDS011;27404;52.398;9.646;2022-11-20T07:02:45;11.90;;;7.10;;
8159;SDS011;27404;52.398;9.646;2022-11-20T07:05:10;11.47;;;7.10;;
8159;SDS011;27404;52.398;9.646;2022-11-20T07:07:35;12.10;;;7.20;;
8159;SDS011;27404;52.398;9.646;2022-11-20T07:10:01;13.93;;;7.20;;
8159;SDS011;27404;52.398;9.646;2022-11-20T07:12:26;13.10;;;7.60;;
8159;SDS011;27404;52.398;9.646;2022-11-20T07:14:52;13.93;;;7.77;;
8159;SDS011;27404;52.398;9.646;2022-11-20T07:17:17;13.80;;;6.93;;
8159;SDS011;27404;52.398;9.646;2022-11-20T07:19:43;12.77;;;7.30;;
8159;SDS011;27404;52.398;9.646;2022-11-20T07:22:08;13.43;;;7.03;;
8159;SDS011;27404;52.398;9.646;2022-11-20T07:24:34;13.00;;;7.40;;
8159;SDS011;27404;52.398;9.646;2022-11-20T07:26:59;13.07;;;7.27;;
8159;SDS011;27404;52.398;9.646;2022-11-20T07:29:25;14.20;;;7.90;;
8159;SDS011;27404;52.398;9.646;2022-11-20T07:31:50;13.10;;;8.03;;
8159;SDS011;27404;52.398;9.646;2022-11-20T07:34:16;13.93;;;7.70;;
8159;SDS011;27404;52.398;9.646;2022-11-20T07:36:41;13.57;;;7.57;;
8159;SDS011;27404;52.398;9.646;2022-11-20T07:39:07;17.13;;;9.73;;
8159;SDS011;27404;52.398;9.646;2022-11-20T07:41:32;16.97;;;9.03;;
8159;SDS011;27404;52.398;9.646;2022-11-20T07:43:58;14.47;;;8.23;;
8159;SDS011;27404;52.398;9.646;2022-11-20T07:46:23;12.43;;;7.47;;
8159;SDS011;27404;52.398;9.646;2022-11-20T07:48:49;13.10;;;7.27;;
8159;SDS011;27404;52.398;9.646;2022-11-20T07:51:14;12.73;;;7.80;;
8159;SDS011;27404;52.398;9.646;2022-11-20T07:53:40;11.80;;;7.83;;
8159;SDS011;27404;52.398;9.646;2022-11-20T07:56:05;12.40;;;7.80;;
8159;SDS011;27404;52.398;9.646;2022-11-20T07:58:31;15.37;;;8.03;;
8159;SDS011;27404;52.398;9.646;2022-11-20T08:01:05;15.37;;;8.37;;
8159;SDS011;27404;52.398;9.646;2022-11-20T08:03:32;14.40;;;7.90;;
8159;SDS011;27404;52.398;9.646;2022-11-20T08:06:00;14.13;;;8.40;;
8159;SDS011;27404;52.398;9.646;2022-11-20T08:08:27;12.97;;;7.50;;
8159;SDS011;27404;52.398;9.646;2022-11-20T08:10:53;14.27;;;7.70;;
8159;SDS011;27404;52.398;9.646;2022-11-20T08:13:39;12.47;;;7.80;;
8159;SDS011;27404;52.398;9.646;2022-11-20T08:16:22;12.97;;;7.53;;
8159;SDS011;27404;52.398;9.646;2022-11-20T08:18:48;13.60;;;8.20;;
8159;SDS011;27404;52.398;9.646;2022-11-20T08:21:14;13.47;;;7.77;;
8159;SDS011;27404;52.398;9.646;2022-11-20T08:23:40;16.23;;;8.80;;
8159;SDS011;27404;52.398;9.646;2022-11-20T08:26:05;15.27;;;8.77;;
8159;SDS011;27404;52.398;9.646;2022-11-20T08:28:31;15.53;;;8.17;;
8159;SDS011;27404;52.398;9.646;2022-11-20T08:31:00;13.53;;;7.13;;
8159;SDS011;27404;52.398;9.646;2022-11-20T08:33:26;11.50;;;7.10;;
8159;SDS011;27404;52.398;9.646;2022-11-20T08:35:52;11.13;;;7.33;;
8159;SDS011;27404;52.398;9.646;2022-11-20T08:38:18;11.77;;;7.20;;
8159;SDS011;27404;52.398;9.646;2022-11-20T08:40:43;14.97;;;7.30;;
8159;SDS011;27404;52.398;9.646;2022-11-20T08:43:32;13.17;;;7.33;;
8159;SDS011;27404;52.398;9.646;2022-11-20T08:45:57;12.57;;;7.13;;
8159;SDS011;27404;52.398;9.646;2022-11-20T08:48:23;11.27;;;6.63;;
8159;SDS011;27404;52.398;9.646;2022-11-20T08:50:48;13.93;;;7.53;;
8159;SDS011;27404;52.398;9.646;2022-11-20T08:53:14;14.43;;;7.67;;
8159;SDS011;27404;52.398;9.646;2022-11-20T08:55:39;13.90;;;8.23;;
8159;SDS011;27404;52.398;9.646;2022-11-20T08:58:05;12.53;;;7.77;;
8159;SDS011;27404;52.398;9.646;2022-11-20T09:00:32;13.37;;;8.03;;
8159;SDS011;27404;52.398;9.646;2022-11-20T09:02:58;11.50;;;7.13;;
8159;SDS011;27404;52.398;9.646;2022-11-20T09:05:25;11.20;;;7.00;;
8159;SDS011;27404;52.398;9.646;2022-11-20T09:07:51;12.73;;;7.23;;
8159;SDS011;27404;52.398;9.646;2022-11-20T09:10:17;11.13;;;6.53;;
8159;SDS011;27404;52.398;9.646;2022-11-20T09:12:42;14.53;;;7.93;;
8159;SDS011;27404;52.398;9.646;2022-11-20T09:15:08;12.30;;;6.80;;
8159;SDS011;27404;52.398;9.646;2022-11-20T09:17:33;11.90;;;7.37;;
8159;SDS011;27404;52.398;9.646;2022-11-20T09:19:59;12.63;;;7.63;;
8159;SDS011;27404;52.398;9.646;2022-11-20T09:22:24;12.67;;;7.77;;
8159;SDS011;27404;52.398;9.646;2022-11-20T09:24:50;12.53;;;7.57;;
8159;SDS011;27404;52.398;9.646;2022-11-20T09:27:15;12.87;;;7.67;;
8159;SDS011;27404;52.398;9.646;2022-11-20T09:29:46;13.97;;;7.00;;
8159;SDS011;27404;52.398;9.646;2022-11-20T09:32:11;11.40;;;7.43;;
8159;SDS011;27404;52.398;9.646;2022-11-20T09:34:37;13.33;;;7.73;;
8159;SDS011;27404;52.398;9.646;2022-11-20T09:37:02;12.27;;;7.80;;
8159;SDS011;27404;52.398;9.646;2022-11-20T09:39:28;13.30;;;7.83;;
8159;SDS011;27404;52.398;9.646;2022-11-20T09:42:00;12.10;;;7.50;;
8159;SDS011;27404;52.398;9.646;2022-11-20T09:47:51;11.77;;;6.70;;
8159;SDS011;27404;52.398;9.646;2022-11-20T09:50:25;8.80;;;6.00;;
8159;SDS011;27404;52.398;9.646;2022-11-20T09:53:13;12.40;;;6.67;;
8159;SDS011;27404;52.398;9.646;2022-11-20T09:56:00;12.63;;;6.93;;
8159;SDS011;27404;52.398;9.646;2022-11-20T10:00:59;11.70;;;7.47;;
8159;SDS011;27404;52.398;9.646;2022-11-20T10:03:37;10.23;;;6.83;;
8159;SDS011;27404;52.398;9.646;2022-11-20T10:06:12;14.50;;;7.63;;
8159;SDS011;27404;52.398;9.646;2022-11-20T10:08:44;10.27;;;6.73;;
8159;SDS011;27404;52.398;9.646;2022-11-20T10:11:46;9.50;;;6.20;;
8159;SDS011;27404;52.398;9.646;2022-11-20T10:14:34;11.57;;;7.00;;
8159;SDS011;27404;52.398;9.646;2022-11-20T10:20:26;12.20;;;6.80;;
8159;SDS011;27404;52.398;9.646;2022-11-20T10:25:38;15.33;;;6.40;;
8159;SDS011;27404;52.398;9.646;2022-11-20T10:30:57;8.63;;;5.23;;
8159;SDS011;27404;52.398;9.646;2022-11-20T10:33:29;9.43;;;5.10;;
8159;SDS011;27404;52.398;9.646;2022-11-20T10:36:03;8.47;;;5.23;;
8159;SDS011;27404;52.398;9.646;2022-11-20T10:38:40;8.80;;;5.53;;
8159;SDS011;27404;52.398;9.646;2022-11-20T10:41:25;10.60;;;5.73;;
8159;SDS011;27404;52.398;9.646;2022-11-20T10:44:05;8.67;;;5.47;;
8159;SDS011;27404;52.398;9.646;2022-11-20T10:46:43;7.90;;;5.33;;
8159;SDS011;27404;52.398;9.646;2022-11-20T10:49:14;13.63;;;6.00;;
8159;SDS011;27404;52.398;9.646;2022-11-20T10:54:46;8.47;;;5.50;;
8159;SDS011;27404;52.398;9.646;2022-11-20T11:00:30;12.47;;;6.00;;
8159;SDS011;27404;52.398;9.646;2022-11-20T11:02:57;9.37;;;5.87;;
8159;SDS011;27404;52.398;9.646;2022-11-20T11:05:41;9.17;;;5.77;;
8159;SDS011;27404;52.398;9.646;2022-11-20T11:08:17;12.33;;;6.80;;
8159;SDS011;27404;52.398;9.646;2022-11-20T11:11:00;13.07;;;7.80;;
8159;SDS011;27404;52.398;9.646;2022-11-20T11:13:42;15.57;;;7.83;;
8159;SDS011;27404;52.398;9.646;2022-11-20T11:16:16;15.80;;;8.40;;
8159;SDS011;27404;52.398;9.646;2022-11-20T11:18:48;18.07;;;9.17;;
8159;SDS011;27404;52.398;9.646;2022-11-20T11:21:19;14.43;;;8.10;;
8159;SDS011;27404;52.398;9.646;2022-11-20T11:23:48;14.07;;;8.30;;
8159;SDS011;27404;52.398;9.646;2022-11-20T11:26:26;14.43;;;7.90;;
8159;SDS011;27404;52.398;9.646;2022-11-20T11:29:02;19.77;;;10.23;;
8159;SDS011;27404;52.398;9.646;2022-11-20T11:31:32;16.70;;;9.13;;
8159;SDS011;27404;52.398;9.646;2022-11-20T11:36:31;20.23;;;10.73;;
8159;SDS011;27404;52.398;9.646;2022-11-20T11:38:59;22.60;;;10.47;;
8159;SDS011;27404;52.398;9.646;2022-11-20T11:41:28;22.37;;;11.70;;
8159;SDS011;27404;52.398;9.646;2022-11-20T11:44:00;16.60;;;8.80;;
8159;SDS011;27404;52.398;9.646;2022-11-20T11:46:58;15.00;;;7.97;;
8159;SDS011;27404;52.398;9.646;2022-11-20T11:49:23;17.13;;;8.83;;
8159;SDS011;27404;52.398;9.646;2022-11-20T12:00:14;14.23;;;8.97;;
8159;SDS011;27404;52.398;9.646;2022-11-20T12:08:12;16.03;;;10.47;;
8159;SDS011;27404;52.398;9.646;2022-11-20T12:10:48;15.33;;;9.20;;
8159;SDS011;27404;52.398;9.646;2022-11-20T12:15:55;13.23;;;8.67;;
8159;SDS011;27404;52.398;9.646;2022-11-20T12:18:21;15.37;;;7.63;;
8159;SDS011;27404;52.398;9.646;2022-11-20T12:21:34;14.73;;;8.23;;
8159;SDS011;27404;52.398;9.646;2022-11-20T12:26:48;13.93;;;7.97;;
8159;SDS011;27404;52.398;9.646;2022-11-20T12:37:48;14.23;;;8.50;;
8159;SDS011;27404;52.398;9.646;2022-11-20T12:40:18;14.13;;;8.13;;
8159;SDS011;27404;52.398;9.646;2022-11-20T12:46:18;12.17;;;7.70;;
8159;SDS011;27404;52.398;9.646;2022-11-20T12:57:03;13.77;;;8.27;;
8159;SDS011;27404;52.398;9.646;2022-11-20T13:02:29;11.87;;;7.70;;
8159;SDS011;27404;52.398;9.646;2022-11-20T13:05:23;12.50;;;7.17;;
8159;SDS011;27404;52.398;9.646;2022-11-20T13:08:00;13.57;;;7.57;;
8159;SDS011;27404;52.398;9.646;2022-11-20T13:13:11;13.37;;;7.60;;
8159;SDS011;27404;52.398;9.646;2022-11-20T13:18:15;10.57;;;6.80;;
8159;SDS011;27404;52.398;9.646;2022-11-20T13:20:43;13.10;;;7.67;;
8159;SDS011;27404;52.398;9.646;2022-11-20T13:23:10;10.53;;;6.83;;
8159;SDS011;27404;52.398;9.646;2022-11-20T13:25:37;12.07;;;8.10;;
8159;SDS011;27404;52.398;9.646;2022-11-20T13:28:26;13.50;;;8.73;;
8159;SDS011;27404;52.398;9.646;2022-11-20T13:30:54;12.57;;;8.20;;
8159;SDS011;27404;52.398;9.646;2022-11-20T13:33:22;13.23;;;7.83;;
8159;SDS011;27404;52.398;9.646;2022-11-20T13:36:02;14.87;;;7.97;;
8159;SDS011;27404;52.398;9.646;2022-11-20T13:38:50;13.27;;;8.47;;
8159;SDS011;27404;52.398;9.646;2022-11-20T13:41:33;11.73;;;7.40;;
8159;SDS011;27404;52.398;9.646;2022-11-20T13:44:10;14.47;;;8.60;;
8159;SDS011;27404;52.398;9.646;2022-11-20T13:46:44;11.97;;;7.10;;
8159;SDS011;27404;52.398;9.646;2022-11-20T13:51:49;14.63;;;8.23;;
8159;SDS011;27404;52.398;9.646;2022-11-20T14:02:22;14.93;;;9.10;;
8159;SDS011;27404;52.398;9.646;2022-11-20T14:04:51;12.40;;;7.70;;
8159;SDS011;27404;52.398;9.646;2022-11-20T14:07:18;15.13;;;8.53;;
8159;SDS011;27404;52.398;9.646;2022-11-20T14:09:53;14.10;;;8.73;;
8159;SDS011;27404;52.398;9.646;2022-11-20T14:12:22;13.47;;;8.10;;
8159;SDS011;27404;52.398;9.646;2022-11-20T14:14:58;15.97;;;7.80;;
8159;SDS011;27404;52.398;9.646;2022-11-20T14:17:34;15.37;;;8.43;;
8159;SDS011;27404;52.398;9.646;2022-11-20T14:20:02;14.03;;;8.50;;
8159;SDS011;27404;52.398;9.646;2022-11-20T14:22:30;13.37;;;8.20;;
8159;SDS011;27404;52.398;9.646;2022-11-20T14:25:06;11.63;;;8.07;;
8159;SDS011;27404;52.398;9.646;2022-11-20T14:27:38;16.30;;;8.90;;
8159;SDS011;27404;52.398;9.646;2022-11-20T14:30:17;16.77;;;9.03;;
8159;SDS011;27404;52.398;9.646;2022-11-20T14:32:45;13.57;;;8.47;;
8159;SDS011;27404;52.398;9.646;2022-11-20T14:35:24;14.10;;;7.93;;
8159;SDS011;27404;52.398;9.646;2022-11-20T14:37:51;12.93;;;8.07;;
8159;SDS011;27404;52.398;9.646;2022-11-20T14:40:25;14.93;;;9.07;;
8159;SDS011;27404;52.398;9.646;2022-11-20T14:42:54;14.20;;;8.33;;
8159;SDS011;27404;52.398;9.646;2022-11-20T14:45:21;15.57;;;8.50;;
8159;SDS011;27404;52.398;9.646;2022-11-20T14:47:49;14.67;;;9.07;;
8159;SDS011;27404;52.398;9.646;2022-11-20T14:50:26;15.00;;;8.93;;
8159;SDS011;27404;52.398;9.646;2022-11-20T14:52:54;17.37;;;9.63;;
8159;SDS011;27404;52.398;9.646;2022-11-20T14:55:27;17.60;;;10.27;;
8159;SDS011;27404;52.398;9.646;2022-11-20T14:58:02;16.37;;;9.97;;
8159;SDS011;27404;52.398;9.646;2022-11-20T15:00:30;19.37;;;10.40;;
8159;SDS011;27404;52.398;9.646;2022-11-20T15:02:56;16.03;;;9.90;;
8159;SDS011;27404;52.398;9.646;2022-11-20T15:05:23;19.10;;;11.23;;
8159;SDS011;27404;52.398;9.646;2022-11-20T15:07:52;16.03;;;10.43;;
8159;SDS011;27404;52.398;9.646;2022-11-20T15:10:33;16.40;;;10.03;;
8159;SDS011;27404;52.398;9.646;2022-11-20T15:13:03;19.50;;;10.57;;
8159;SDS011;27404;52.398;9.646;2022-11-20T15:18:28;26.53;;;14.67;;
8159;SDS011;27404;52.398;9.646;2022-11-20T15:20:57;44.13;;;21.40;;
8159;SDS011;27404;52.398;9.646;2022-11-20T15:23:27;46.33;;;22.43;;
8159;SDS011;27404;52.398;9.646;2022-11-20T15:25:53;47.00;;;23.60;;
8159;SDS011;27404;52.398;9.646;2022-11-20T15:28:25;35.57;;;19.23;;
8159;SDS011;27404;52.398;9.646;2022-11-20T15:30:55;29.90;;;15.37;;
8159;SDS011;27404;52.398;9.646;2022-11-20T15:33:21;21.13;;;12.90;;
8159;SDS011;27404;52.398;9.646;2022-11-20T15:35:47;24.00;;;13.73;;
8159;SDS011;27404;52.398;9.646;2022-11-20T15:38:12;30.17;;;14.87;;
8159;SDS011;27404;52.398;9.646;2022-11-20T15:40:38;17.73;;;11.67;;
8159;SDS011;27404;52.398;9.646;2022-11-20T15:43:04;20.03;;;12.57;;
8159;SDS011;27404;52.398;9.646;2022-11-20T15:45:37;23.70;;;13.17;;
8159;SDS011;27404;52.398;9.646;2022-11-20T15:51:06;20.13;;;11.53;;
8159;SDS011;27404;52.398;9.646;2022-11-20T15:53:52;19.17;;;11.27;;
8159;SDS011;27404;52.398;9.646;2022-11-20T15:56:20;18.03;;;11.80;;
8159;SDS011;27404;52.398;9.646;2022-11-20T15:58:45;18.53;;;11.10;;
8159;SDS011;27404;52.398;9.646;2022-11-20T16:01:11;16.83;;;10.17;;
8159;SDS011;27404;52.398;9.646;2022-11-20T16:03:38;18.00;;;11.47;;
8159;SDS011;27404;52.398;9.646;2022-11-20T16:06:04;16.47;;;10.80;;
8159;SDS011;27404;52.398;9.646;2022-11-20T16:08:29;19.57;;;11.00;;
8159;SDS011;27404;52.398;9.646;2022-11-20T16:10:55;21.47;;;11.97;;
8159;SDS011;27404;52.398;9.646;2022-11-20T16:13:20;17.17;;;10.40;;
8159;SDS011;27404;52.398;9.646;2022-11-20T16:16:05;20.50;;;11.90;;
8159;SDS011;27404;52.398;9.646;2022-11-20T16:18:36;21.07;;;11.77;;
8159;SDS011;27404;52.398;9.646;2022-11-20T16:21:02;21.27;;;12.43;;
8159;SDS011;27404;52.398;9.646;2022-11-20T16:23:28;20.80;;;12.17;;
8159;SDS011;27404;52.398;9.646;2022-11-20T16:25:53;22.27;;;12.13;;
8159;SDS011;27404;52.398;9.646;2022-11-20T16:28:19;22.43;;;12.40;;
8159;SDS011;27404;52.398;9.646;2022-11-20T16:30:45;22.00;;;12.50;;